Time;durP1;ratioP1;P1;durP2;ratioP2;P2;SDS_P1;SDS_P2;PMS_P1;PMS_P2;Temp;Humidity;BMP_temperature;BMP_pressure;BME280_temperature;BME280_humidity;BME280_pressure;Samples;Min_cycle;Max_cycle;Signal;HPM_P1;HPM_P2
2021/06/13 00:02:21;;;;;;;1.87;1.70;;;19.80;98.00;;;;;;5070320;28;20536;-75
2021/06/13 00:04:48;;;;;;;2.57;1.60;;;19.90;98.00;;;;;;5073088;28;20845;-74
2021/06/13 00:07:14;;;;;;;1.70;1.37;;;20.00;98.00;;;;;;5070301;28;20457;-74
2021/06/13 00:09:41;;;;;;;1.73;1.50;;;19.90;98.00;;;;;;5071721;28;20830;-75
2021/06/13 00:12:11;;;;;;;1.87;1.53;;;19.70;98.00;;;;;;5070174;28;20895;-74
2021/06/13 00:14:38;;;;;;;1.70;1.53;;;19.70;98.00;;;;;;5072985;28;20510;-75
2021/06/13 00:17:05;;;;;;;1.40;1.23;;;19.40;98.00;;;;;;5070057;28;20460;-74
2021/06/13 00:19:31;;;;;;;1.73;1.40;;;19.20;98.00;;;;;;5072838;28;20492;-74
2021/06/13 00:21:58;;;;;;;1.40;1.20;;;19.10;98.00;;;;;;5070146;28;20829;-74
2021/06/13 00:24:25;;;;;;;2.17;1.80;;;19.10;98.00;;;;;;5071486;28;20493;-74
2021/06/13 00:26:53;;;;;;;1.53;1.20;;;19.00;98.00;;;;;;5070162;28;20459;-75
2021/06/13 00:29:21;;;;;;;2.07;1.30;;;19.00;98.00;;;;;;5054645;28;20460;-75
2021/06/13 00:31:49;;;;;;;1.30;1.30;;;18.80;98.00;;;;;;5069867;28;20520;-77
2021/06/13 00:34:15;;;;;;;1.77;1.30;;;18.70;98.00;;;;;;5070949;28;20792;-74
2021/06/13 00:36:42;;;;;;;2.80;1.90;;;18.60;98.00;;;;;;5069711;28;20492;-76
2021/06/13 00:39:09;;;;;;;2.17;1.40;;;18.50;98.00;;;;;;5072124;28;20456;-75
2021/06/13 00:41:36;;;;;;;2.13;1.67;;;18.50;98.00;;;;;;5069666;28;20468;-76
2021/06/13 00:44:02;;;;;;;1.50;1.30;;;18.40;98.00;;;;;;5072032;28;20464;-76
2021/06/13 00:46:40;;;;;;;1.93;1.47;;;18.50;98.00;;;;;;5069730;28;20453;-76
2021/06/13 00:49:06;;;;;;;1.67;1.27;;;18.40;98.00;;;;;;5072026;28;20457;-75
2021/06/13 00:51:33;;;;;;;2.40;1.40;;;18.30;98.00;;;;;;5068493;28;20456;-75
2021/06/13 00:53:59;;;;;;;1.60;1.20;;;18.40;98.00;;;;;;5071952;28;20465;-76
2021/06/13 00:56:26;;;;;;;2.17;1.73;;;18.30;98.00;;;;;;5069383;28;20488;-74
2021/06/13 00:58:53;;;;;;;1.40;1.23;;;18.40;98.00;;;;;;5071835;28;20605;-76
2021/06/13 01:01:20;;;;;;;2.20;1.80;;;18.40;98.00;;;;;;5069471;28;20475;-75
2021/06/13 01:03:48;;;;;;;1.30;1.20;;;18.50;98.00;;;;;;5071882;28;20943;-76
2021/06/13 01:06:21;;;;;;;1.93;1.50;;;18.60;98.00;;;;;;5068334;28;20529;-74
2021/06/13 01:08:52;;;;;;;1.50;1.47;;;18.70;98.00;;;;;;5071792;28;20466;-76
2021/06/13 01:11:28;;;;;;;1.93;1.60;;;18.70;98.00;;;;;;5068781;28;20453;-76
2021/06/13 01:14:02;;;;;;;1.80;1.50;;;18.80;98.00;;;;;;5070308;28;20489;-76
2021/06/13 01:16:35;;;;;;;1.30;1.20;;;18.70;98.00;;;;;;5067708;28;20515;-76
2021/06/13 01:19:13;;;;;;;1.70;1.60;;;18.60;98.00;;;;;;5071529;28;20509;-76
2021/06/13 01:21:49;;;;;;;1.60;1.60;;;18.60;98.00;;;;;;5068737;28;20480;-76
2021/06/13 01:24:22;;;;;;;2.50;1.60;;;18.50;98.00;;;;;;5071207;28;20518;-76
2021/06/13 01:27:16;;;;;;;1.30;1.10;;;18.50;98.00;;;;;;5068703;28;20455;-75
2021/06/13 01:29:46;;;;;;;1.90;1.50;;;18.50;98.00;;;;;;5071174;28;20510;-77
2021/06/13 01:32:17;;;;;;;1.93;1.33;;;18.30;98.00;;;;;;5068569;28;20523;-77
2021/06/13 01:34:49;;;;;;;2.47;1.47;;;18.30;98.00;;;;;;5071289;28;20553;-76
2021/06/13 01:37:18;;;;;;;2.73;1.40;;;18.40;98.00;;;;;;5067295;28;20498;-76
2021/06/13 01:39:49;;;;;;;1.90;1.50;;;18.40;98.00;;;;;;5071222;28;20445;-76
2021/06/13 01:42:16;;;;;;;3.33;1.60;;;18.40;98.00;;;;;;5068632;28;20463;-75
2021/06/13 01:44:48;;;;;;;1.97;1.40;;;18.40;98.00;;;;;;5071143;28;20955;-76
2021/06/13 01:47:15;;;;;;;1.67;1.50;;;18.40;98.00;;;;;;5068610;28;20820;-74
2021/06/13 01:49:43;;;;;;;1.87;1.20;;;18.30;98.00;;;;;;5071370;28;20452;-74
2021/06/13 01:52:13;;;;;;;1.90;1.37;;;18.10;98.00;;;;;;5067385;28;20896;-75
2021/06/13 01:54:40;;;;;;;1.57;1.37;;;18.10;98.00;;;;;;5070956;28;20495;-75
2021/06/13 01:57:08;;;;;;;1.87;1.57;;;18.10;98.00;;;;;;5067251;28;20493;-76
2021/06/13 01:59:40;;;;;;;2.00;1.23;;;18.10;98.00;;;;;;5069684;28;20461;-76
2021/06/13 02:02:09;;;;;;;2.00;1.37;;;18.10;98.00;;;;;;5068273;28;20461;-75
2021/06/13 02:04:38;;;;;;;1.93;1.30;;;18.10;98.00;;;;;;5070784;28;20482;-75
2021/06/13 02:07:05;;;;;;;2.00;1.63;;;18.20;98.00;;;;;;5068166;28;20453;-76
2021/06/13 02:09:32;;;;;;;2.83;1.80;;;18.40;98.00;;;;;;5070898;28;20862;-75
2021/06/13 02:12:02;;;;;;;1.40;1.27;;;18.40;98.00;;;;;;5067937;28;20545;-76
2021/06/13 02:14:30;;;;;;;2.40;1.80;;;18.50;98.00;;;;;;5070670;28;20935;-74
2021/06/13 02:16:58;;;;;;;2.23;1.50;;;18.50;98.00;;;;;;5066843;28;20464;-76
2021/06/13 02:19:28;;;;;;;1.47;1.30;;;18.50;98.00;;;;;;5070368;28;20495;-75
2021/06/13 02:21:57;;;;;;;1.40;1.40;;;18.60;98.00;;;;;;5068140;28;20514;-75
2021/06/13 02:24:27;;;;;;;1.50;1.40;;;18.50;98.00;;;;;;5070406;28;20982;-74
2021/06/13 02:26:54;;;;;;;1.50;1.40;;;18.50;98.00;;;;;;5066863;28;20461;-75
2021/06/13 02:29:29;;;;;;;1.30;1.20;;;18.40;98.00;;;;;;5070332;28;20476;-75
2021/06/13 02:31:58;;;;;;;1.20;1.20;;;18.30;98.00;;;;;;5067955;28;20488;-76
2021/06/13 02:34:28;;;;;;;1.50;1.30;;;18.40;98.00;;;;;;5070418;28;20448;-74
2021/06/13 02:36:57;;;;;;;1.47;1.30;;;18.40;98.00;;;;;;5068154;28;20570;-75
2021/06/13 02:39:24;;;;;;;1.20;1.10;;;18.30;98.00;;;;;;5070557;28;20968;-73
2021/06/13 02:41:51;;;;;;;1.80;1.63;;;18.30;98.00;;;;;;5067668;28;20456;-75
2021/06/13 02:44:18;;;;;;;1.60;1.50;;;18.40;98.00;;;;;;5070435;28;20468;-75
2021/06/13 02:46:45;;;;;;;1.20;1.07;;;18.40;98.00;;;;;;5067844;28;20460;-75
2021/06/13 02:49:12;;;;;;;2.07;1.63;;;18.30;98.00;;;;;;5070472;28;20590;-75
2021/06/13 02:51:48;;;;;;;1.60;1.50;;;18.40;98.00;;;;;;5067814;28;20880;-75
2021/06/13 02:54:15;;;;;;;1.57;1.23;;;18.50;98.00;;;;;;5069995;28;20514;-74
2021/06/13 02:56:48;;;;;;;1.80;1.47;;;18.30;98.00;;;;;;5067974;28;20498;-74
2021/06/13 02:59:24;;;;;;;3.50;1.40;;;18.20;98.00;;;;;;5070468;28;20773;-75
2021/06/13 03:01:52;;;;;;;3.00;1.57;;;18.10;98.00;;;;;;5068041;28;20799;-75
2021/06/13 03:04:21;;;;;;;1.53;1.40;;;18.00;98.00;;;;;;5070561;28;20507;-74
2021/06/13 03:06:53;;;;;;;1.40;1.20;;;17.80;98.00;;;;;;5067621;28;20487;-73
2021/06/13 03:09:20;;;;;;;1.93;1.30;;;17.60;98.00;;;;;;5070059;28;20464;-75
2021/06/13 03:11:47;;;;;;;1.90;1.50;;;17.60;98.00;;;;;;5067601;28;20453;-75
2021/06/13 03:14:15;;;;;;;2.37;1.50;;;17.60;98.00;;;;;;5070095;28;20551;-74
2021/06/13 03:16:42;;;;;;;1.77;1.43;;;17.50;98.00;;;;;;5067480;28;20559;-75
2021/06/13 03:19:10;;;;;;;1.50;1.50;;;17.50;98.00;;;;;;5070379;28;20649;-74
2021/06/13 03:21:38;;;;;;;2.20;2.00;;;17.60;98.00;;;;;;5067301;28;20452;-75
2021/06/13 03:24:07;;;;;;;2.37;1.40;;;17.50;98.00;;;;;;5069467;28;20457;-74
2021/06/13 03:26:35;;;;;;;1.90;1.53;;;17.50;98.00;;;;;;5067287;28;20453;-76
2021/06/13 03:29:03;;;;;;;1.30;1.20;;;17.60;98.00;;;;;;5070095;28;20955;-74
2021/06/13 03:31:29;;;;;;;1.27;1.20;;;17.70;98.00;;;;;;5070721;28;20460;-74
2021/06/13 03:33:57;;;;;;;1.53;1.40;;;17.80;98.00;;;;;;5073376;28;20480;-74
2021/06/13 03:36:25;;;;;;;1.50;1.30;;;17.90;98.00;;;;;;5070861;28;20453;-75
2021/06/13 03:38:53;;;;;;;1.40;1.27;;;18.00;98.00;;;;;;5073443;28;20456;-74
2021/06/13 03:41:24;;;;;;;2.00;1.50;;;18.00;98.00;;;;;;5070752;28;20453;-74
2021/06/13 03:43:51;;;;;;;1.40;1.20;;;17.90;98.00;;;;;;5073313;28;20461;-74
2021/06/13 03:46:19;;;;;;;1.50;1.20;;;17.80;98.00;;;;;;5070906;28;20542;-74
2021/06/13 03:48:50;;;;;;;1.60;1.30;;;17.80;98.00;;;;;;5073354;28;20966;-74
2021/06/13 03:51:18;;;;;;;1.50;1.33;;;17.80;98.00;;;;;;5070685;28;20464;-75
2021/06/13 03:53:48;;;;;;;1.77;1.20;;;17.80;98.00;;;;;;5072975;28;20484;-75
2021/06/13 03:56:22;;;;;;;2.20;1.60;;;17.80;98.00;;;;;;5070441;28;20951;-74
2021/06/13 03:58:50;;;;;;;3.10;1.80;;;17.70;98.00;;;;;;5073012;28;20518;-74
2021/06/13 04:01:23;;;;;;;4.10;1.60;;;17.60;98.00;;;;;;5070431;28;20457;-76
2021/06/13 04:03:53;;;;;;;1.33;1.30;;;17.60;98.00;;;;;;5072629;28;20500;-74
2021/06/13 04:06:33;;;;;;;1.77;1.33;;;17.70;98.00;;;;;;5070510;28;20457;-75
2021/06/13 04:09:02;;;;;;;1.30;1.20;;;17.50;98.00;;;;;;5072073;28;20820;-75
2021/06/13 04:11:32;;;;;;;1.50;1.30;;;17.40;98.00;;;;;;5069200;28;20517;-74
2021/06/13 04:14:01;;;;;;;2.43;1.30;;;17.50;98.00;;;;;;5073016;28;20728;-74
2021/06/13 04:16:28;;;;;;;2.90;1.80;;;17.70;98.00;;;;;;5070406;28;20450;-74
2021/06/13 04:18:57;;;;;;;3.10;1.70;;;17.70;98.00;;;;;;5073039;28;20452;-75
2021/06/13 04:21:25;;;;;;;1.23;1.13;;;17.70;98.00;;;;;;5070228;28;20490;-76
2021/06/13 04:23:52;;;;;;;1.77;1.47;;;17.60;98.00;;;;;;5072168;28;20900;-74
2021/06/13 04:26:21;;;;;;;1.90;1.67;;;17.70;98.00;;;;;;5069094;28;20948;-75
2021/06/13 04:28:50;;;;;;;1.47;1.37;;;17.80;98.00;;;;;;5072492;28;20496;-75
2021/06/13 04:31:19;;;;;;;1.50;1.40;;;17.70;98.00;;;;;;5069986;28;20917;-74
2021/06/13 04:33:48;;;;;;;2.07;1.67;;;17.70;98.00;;;;;;5072573;28;20549;-75
2021/06/13 04:36:18;;;;;;;2.33;1.47;;;17.60;98.00;;;;;;5069724;28;20449;-74
2021/06/13 04:38:45;;;;;;;1.40;1.40;;;17.30;98.00;;;;;;5072186;28;20878;-75
2021/06/13 04:41:12;;;;;;;2.77;2.13;;;17.30;98.00;;;;;;5069685;28;20460;-76
2021/06/13 04:43:40;;;;;;;1.70;1.30;;;17.20;98.00;;;;;;5070908;28;20544;-75
2021/06/13 04:46:10;;;;;;;1.60;1.30;;;17.00;98.00;;;;;;5070393;28;20547;-77
2021/06/13 04:48:38;;;;;;;2.83;1.50;;;17.00;98.00;;;;;;5072081;28;20460;-74
2021/06/13 04:51:07;;;;;;;2.07;1.37;;;17.00;98.00;;;;;;5070396;28;20488;-76
2021/06/13 04:53:49;;;;;;;1.20;1.10;;;16.90;98.00;;;;;;5071946;28;20597;-75
2021/06/13 04:56:23;;;;;;;2.17;1.70;;;16.90;98.00;;;;;;5069395;28;20506;-74
2021/06/13 04:58:50;;;;;;;2.27;1.57;;;17.00;98.00;;;;;;5071888;28;20460;-74
2021/06/13 05:01:19;;;;;;;1.87;1.60;;;17.00;98.00;;;;;;5069192;28;20457;-75
2021/06/13 05:03:46;;;;;;;1.70;1.57;;;17.00;98.00;;;;;;5071621;28;20449;-75
2021/06/13 05:06:14;;;;;;;1.90;1.50;;;17.20;98.00;;;;;;5069027;28;20484;-75
2021/06/13 05:08:41;;;;;;;1.20;1.10;;;17.20;98.00;;;;;;5070378;28;20560;-74
2021/06/13 05:11:08;;;;;;;1.77;1.60;;;17.30;98.00;;;;;;5070258;28;20457;-75
2021/06/13 05:13:35;;;;;;;1.63;1.30;;;17.40;98.00;;;;;;5071532;28;20520;-76
2021/06/13 05:16:02;;;;;;;3.20;1.90;;;17.40;98.00;;;;;;5071951;28;20456;-75
2021/06/13 05:18:31;;;;;;;2.10;1.47;;;17.60;98.00;;;;;;5068802;28;20967;-75
2021/06/13 05:20:59;;;;;;;1.73;1.63;;;17.70;98.00;;;;;;5071429;28;20943;-75
2021/06/13 05:23:27;;;;;;;1.70;1.67;;;17.70;98.00;;;;;;5068520;28;20929;-73
2021/06/13 05:25:56;;;;;;;1.53;1.30;;;17.80;98.00;;;;;;5071514;28;20481;-75
2021/06/13 05:28:24;;;;;;;1.40;1.27;;;17.80;98.00;;;;;;5068770;28;20448;-75
2021/06/13 05:30:51;;;;;;;1.87;1.50;;;17.80;98.00;;;;;;5071312;28;20518;-75
2021/06/13 05:33:19;;;;;;;1.60;1.27;;;18.00;98.00;;;;;;5068825;28;20519;-75
2021/06/13 05:35:48;;;;;;;1.20;1.10;;;18.00;98.00;;;;;;5071303;28;20459;-75
2021/06/13 05:38:15;;;;;;;1.50;1.33;;;18.10;98.00;;;;;;5068833;28;20448;-75
2021/06/13 05:40:42;;;;;;;1.90;1.37;;;18.10;98.00;;;;;;5071489;28;20488;-74
2021/06/13 05:43:10;;;;;;;2.23;1.27;;;18.10;98.00;;;;;;5068815;28;20484;-75
2021/06/13 05:45:38;;;;;;;1.50;1.40;;;18.20;98.00;;;;;;5070291;28;20495;-75
2021/06/13 05:48:06;;;;;;;1.80;1.60;;;18.30;98.00;;;;;;5069366;28;20460;-74
2021/06/13 05:50:34;;;;;;;1.67;1.50;;;18.40;98.00;;;;;;5072212;28;20575;-74
2021/06/13 05:53:03;;;;;;;2.13;1.30;;;18.50;98.00;;;;;;5068082;28;21026;-74
2021/06/13 05:55:31;;;;;;;1.53;1.40;;;18.60;98.00;;;;;;5071970;28;20494;-74
2021/06/13 05:57:58;;;;;;;2.00;1.37;;;18.70;98.00;;;;;;5068110;28;20463;-75
2021/06/13 06:00:28;;;;;;;1.70;1.67;;;18.70;98.00;;;;;;5070865;28;20457;-73
2021/06/13 06:02:55;;;;;;;3.90;1.90;;;18.80;98.00;;;;;;5068557;28;20518;-74
2021/06/13 06:05:23;;;;;;;2.70;1.33;;;18.60;98.00;;;;;;5070878;28;20448;-74
2021/06/13 06:07:51;;;;;;;1.70;1.40;;;18.60;98.00;;;;;;5068297;28;20966;-72
2021/06/13 06:10:22;;;;;;;1.60;1.43;;;18.80;98.00;;;;;;5070695;28;20534;-73
2021/06/13 06:12:49;;;;;;;1.73;1.53;;;18.90;98.00;;;;;;5068302;28;20856;-74
2021/06/13 06:15:17;;;;;;;1.40;1.30;;;18.80;98.00;;;;;;5070719;28;20510;-74
2021/06/13 06:17:45;;;;;;;1.57;1.27;;;18.90;98.00;;;;;;5067152;28;20963;-72
2021/06/13 06:20:14;;;;;;;1.47;1.30;;;18.80;98.00;;;;;;5070587;28;20529;-73
2021/06/13 06:22:41;;;;;;;1.30;1.30;;;18.70;98.00;;;;;;5066891;28;20480;-74
2021/06/13 06:25:11;;;;;;;1.53;1.30;;;18.70;98.00;;;;;;5070605;28;20511;-74
2021/06/13 06:27:40;;;;;;;1.40;1.30;;;18.80;98.00;;;;;;5068316;28;20522;-73
2021/06/13 06:30:11;;;;;;;1.73;1.30;;;19.00;98.00;;;;;;5070708;28;20453;-72
2021/06/13 06:32:46;;;;;;;1.80;1.60;;;19.20;98.00;;;;;;5067635;28;21004;-73
2021/06/13 06:35:14;;;;;;;2.90;1.40;;;19.20;98.00;;;;;;5070509;28;20553;-72
2021/06/13 06:37:44;;;;;;;2.50;1.50;;;19.30;97.80;;;;;;5068054;28;20499;-71
2021/06/13 06:40:13;;;;;;;2.07;1.33;;;19.30;96.60;;;;;;5070442;28;20453;-74
2021/06/13 06:42:43;;;;;;;1.30;1.27;;;19.30;97.00;;;;;;5067989;28;20510;-75
2021/06/13 06:45:12;;;;;;;1.97;1.40;;;19.20;97.90;;;;;;5070022;28;20480;-74
2021/06/13 06:47:40;;;;;;;1.40;1.20;;;19.00;97.70;;;;;;5068157;28;20518;-73
2021/06/13 06:50:08;;;;;;;1.40;1.20;;;19.00;98.00;;;;;;5070262;28;20456;-72
2021/06/13 06:52:36;;;;;;;2.00;1.57;;;19.00;98.00;;;;;;5066657;28;20787;-74
2021/06/13 06:55:03;;;;;;;1.30;1.13;;;19.10;98.00;;;;;;5070580;28;20480;-74
2021/06/13 06:57:31;;;;;;;1.40;1.30;;;19.10;98.00;;;;;;5067991;28;20480;-76
2021/06/13 07:00:00;;;;;;;3.70;1.90;;;19.40;98.00;;;;;;5070447;28;20935;-74
2021/06/13 07:02:29;;;;;;;2.13;1.60;;;19.50;97.60;;;;;;5067817;28;20476;-75
2021/06/13 07:04:57;;;;;;;1.80;1.30;;;19.60;96.70;;;;;;5071432;28;20916;-74
2021/06/13 07:07:27;;;;;;;1.47;1.33;;;19.60;97.10;;;;;;5071339;28;20512;-76
2021/06/13 07:09:54;;;;;;;1.50;1.30;;;19.80;96.80;;;;;;5074027;28;20496;-73
2021/06/13 07:12:21;;;;;;;2.07;1.67;;;19.80;98.00;;;;;;5071533;28;20456;-73
2021/06/13 07:14:48;;;;;;;1.50;1.30;;;20.00;96.00;;;;;;5073921;28;20881;-73
2021/06/13 07:17:18;;;;;;;1.40;1.30;;;20.10;95.60;;;;;;5071168;28;20493;-73
2021/06/13 07:19:45;;;;;;;1.40;1.30;;;20.20;93.60;;;;;;5073827;28;20453;-74
2021/06/13 07:22:12;;;;;;;1.57;1.30;;;20.20;93.60;;;;;;5071214;28;20466;-74
2021/06/13 07:24:39;;;;;;;1.67;1.37;;;20.10;93.90;;;;;;5073733;28;20518;-73
2021/06/13 07:27:06;;;;;;;1.93;1.53;;;20.10;95.10;;;;;;5071190;28;20453;-75
2021/06/13 07:29:34;;;;;;;3.00;1.50;;;20.30;94.10;;;;;;5073584;28;20612;-73
2021/06/13 07:32:01;;;;;;;1.50;1.40;;;20.30;93.40;;;;;;5069760;28;20755;-70
2021/06/13 07:34:30;;;;;;;1.57;1.37;;;20.40;94.50;;;;;;5072385;28;20491;-71
2021/06/13 07:36:57;;;;;;;2.33;1.47;;;20.50;93.20;;;;;;5070783;28;20536;-72
2021/06/13 07:39:24;;;;;;;1.70;1.20;;;20.70;92.90;;;;;;5072891;28;20453;-72
2021/06/13 07:41:53;;;;;;;2.17;1.53;;;20.80;92.40;;;;;;5070628;28;20512;-72
2021/06/13 07:44:20;;;;;;;1.50;1.40;;;20.80;92.30;;;;;;5072739;28;21027;-73
2021/06/13 07:46:47;;;;;;;4.33;1.20;;;20.70;92.50;;;;;;5070325;28;20551;-74
2021/06/13 07:49:17;;;;;;;3.37;1.87;;;20.40;93.10;;;;;;5072755;28;20456;-73
2021/06/13 07:51:45;;;;;;;2.60;1.43;;;20.40;91.90;;;;;;5070372;28;20894;-75
2021/06/13 07:54:14;;;;;;;1.50;1.43;;;20.40;92.20;;;;;;5072433;28;20488;-75
2021/06/13 07:56:41;;;;;;;1.37;1.27;;;20.50;92.70;;;;;;5070189;28;20811;-74
2021/06/13 07:59:08;;;;;;;1.30;1.10;;;20.50;93.10;;;;;;5072763;28;20448;-74
2021/06/13 08:01:35;;;;;;;1.50;1.30;;;20.50;93.00;;;;;;5069728;28;20518;-74
2021/06/13 08:04:04;;;;;;;1.90;1.23;;;20.50;91.70;;;;;;5072596;28;20522;-74
2021/06/13 08:06:32;;;;;;;1.67;1.50;;;20.40;91.80;;;;;;5070296;28;20453;-72
2021/06/13 08:09:02;;;;;;;1.67;1.40;;;20.60;92.70;;;;;;5072839;28;20987;-73
2021/06/13 08:11:31;;;;;;;1.30;1.20;;;20.80;91.60;;;;;;5069946;28;20522;-73
2021/06/13 08:13:58;;;;;;;1.53;1.10;;;20.90;91.00;;;;;;5072336;28;20485;-73
2021/06/13 08:16:26;;;;;;;2.50;1.70;;;21.00;90.80;;;;;;5071517;28;20505;-72
2021/06/13 08:18:53;;;;;;;1.73;1.40;;;21.10;90.10;;;;;;5071274;28;21022;-73
2021/06/13 08:21:20;;;;;;;1.70;1.30;;;21.20;89.80;;;;;;5072124;28;20820;-71
2021/06/13 08:23:47;;;;;;;1.40;1.23;;;21.20;89.90;;;;;;5069243;28;20557;-72
2021/06/13 08:26:16;;;;;;;1.53;1.33;;;21.40;90.60;;;;;;5072069;28;20514;-70
2021/06/13 08:28:43;;;;;;;1.40;1.40;;;21.60;89.70;;;;;;5069435;28;20453;-71
2021/06/13 08:31:10;;;;;;;1.47;1.23;;;21.60;90.80;;;;;;5072063;28;20488;-71
2021/06/13 08:33:37;;;;;;;1.50;1.33;;;21.90;92.10;;;;;;5068872;28;20535;-72
2021/06/13 08:36:05;;;;;;;1.40;1.30;;;22.30;93.80;;;;;;5071950;28;20496;-71
2021/06/13 08:38:32;;;;;;;1.20;1.10;;;22.50;91.40;;;;;;5069314;28;20484;-70
2021/06/13 08:40:59;;;;;;;1.40;1.20;;;22.50;92.90;;;;;;5071952;28;20938;-72
2021/06/13 08:43:28;;;;;;;1.60;1.40;;;22.60;90.40;;;;;;5069162;28;20515;-70
2021/06/13 08:46:00;;;;;;;1.50;1.43;;;22.50;92.30;;;;;;5071726;28;20886;-73
2021/06/13 08:48:31;;;;;;;1.60;1.50;;;22.50;88.90;;;;;;5069421;28;20869;-74
2021/06/13 08:51:05;;;;;;;1.30;1.20;;;22.70;90.40;;;;;;5072106;28;20507;-74
2021/06/13 08:53:32;;;;;;;1.40;1.30;;;22.90;89.00;;;;;;5069313;28;20522;-74
2021/06/13 08:55:59;;;;;;;1.80;1.70;;;22.90;87.90;;;;;;5071783;28;20492;-72
2021/06/13 08:58:28;;;;;;;2.10;1.60;;;23.10;89.90;;;;;;5069272;28;20883;-74
2021/06/13 09:00:57;;;;;;;1.57;1.37;;;22.90;87.00;;;;;;5071931;28;20488;-75
2021/06/13 09:03:24;;;;;;;2.03;1.60;;;22.70;84.30;;;;;;5069072;28;21047;-74
2021/06/13 09:05:52;;;;;;;1.97;1.77;;;22.00;85.10;;;;;;5071872;28;20453;-74
2021/06/13 09:08:19;;;;;;;1.67;1.50;;;21.80;85.90;;;;;;5069462;28;20962;-74
2021/06/13 09:10:47;;;;;;;2.23;1.53;;;21.60;86.50;;;;;;5071750;28;20473;-75
2021/06/13 09:13:16;;;;;;;1.43;1.33;;;21.80;87.50;;;;;;5067847;28;20460;-74
2021/06/13 09:15:48;;;;;;;1.70;1.20;;;22.00;87.20;;;;;;5071558;28;20572;-72
2021/06/13 09:18:36;;;;;;;1.30;1.27;;;22.00;85.00;;;;;;5068822;28;20522;-65
2021/06/13 09:21:04;;;;;;;1.47;1.43;;;22.00;87.10;;;;;;5071535;28;20452;-74
2021/06/13 09:23:34;;;;;;;2.80;1.70;;;22.00;88.70;;;;;;5068885;28;20468;-71
2021/06/13 09:26:04;;;;;;;1.90;1.40;;;22.30;86.70;;;;;;5078133;28;20452;-71
2021/06/13 09:28:37;;;;;;;1.60;1.60;;;22.10;85.70;;;;;;5072868;28;20492;-70
2021/06/13 09:31:06;;;;;;;1.40;1.20;;;21.90;85.50;;;;;;5071624;28;20461;-72
2021/06/13 09:33:34;;;;;;;1.95;1.30;;;21.80;85.80;;;;;;5068753;28;20496;-72
2021/06/13 09:36:04;;;;;;;1.70;1.33;;;21.80;86.20;;;;;;5071432;28;20510;-72
2021/06/13 09:38:32;;;;;;;1.77;1.30;;;21.90;84.90;;;;;;5068723;28;20561;-73
2021/06/13 09:41:02;;;;;;;1.50;1.40;;;22.00;85.50;;;;;;5071263;28;20540;-71
2021/06/13 09:43:33;;;;;;;1.97;1.67;;;22.20;83.30;;;;;;5068521;28;20855;-72
2021/06/13 09:46:03;;;;;;;1.50;1.40;;;22.10;83.70;;;;;;5071100;28;20488;-71
2021/06/13 09:48:32;;;;;;;2.47;1.67;;;22.30;84.60;;;;;;5066990;28;20815;-73
2021/06/13 09:51:02;;;;;;;1.60;1.30;;;22.40;86.20;;;;;;5071212;28;20472;-71
2021/06/13 09:53:39;;;;;;;1.43;1.30;;;22.20;86.10;;;;;;5067285;28;20909;-72
2021/06/13 09:56:15;;;;;;;2.03;1.80;;;22.40;85.70;;;;;;5071116;28;20459;-73
2021/06/13 09:58:54;;;;;;;1.40;1.30;;;22.30;85.90;;;;;;5068225;28;20899;-71
2021/06/13 10:01:22;;;;;;;1.37;1.30;;;22.30;86.50;;;;;;5071181;28;20491;-74
2021/06/13 10:03:52;;;;;;;1.47;1.43;;;22.40;85.30;;;;;;5068592;28;20461;-72
2021/06/13 10:06:19;;;;;;;2.27;1.70;;;22.70;85.10;;;;;;5070797;28;20460;-72
2021/06/13 10:08:48;;;;;;;1.73;1.30;;;22.50;84.30;;;;;;5067123;28;20452;-72
2021/06/13 10:11:18;;;;;;;1.30;1.30;;;22.50;83.10;;;;;;5070868;28;20448;-72
2021/06/13 10:13:49;;;;;;;1.50;1.40;;;22.40;84.30;;;;;;5069147;28;20509;-72
2021/06/13 10:16:25;;;;;;;3.50;2.00;;;22.50;82.20;;;;;;5071075;28;21020;-72
2021/06/13 10:18:58;;;;;;;6.30;1.93;;;22.80;82.90;;;;;;5068462;28;20457;-72
2021/06/13 10:21:28;;;;;;;1.80;1.50;;;23.10;83.30;;;;;;5070537;28;20900;-72
2021/06/13 10:23:56;;;;;;;1.40;1.40;;;23.50;81.90;;;;;;5068174;28;20548;-72
2021/06/13 10:26:23;;;;;;;1.80;1.40;;;23.70;81.70;;;;;;5070957;28;20453;-72
2021/06/13 10:28:50;;;;;;;1.90;1.63;;;23.90;80.90;;;;;;5068700;28;20510;-73
2021/06/13 10:31:17;;;;;;;1.70;1.50;;;24.00;80.60;;;;;;5070596;28;20955;-73
2021/06/13 10:33:46;;;;;;;1.40;1.30;;;24.00;79.50;;;;;;5068258;28;20879;-75
2021/06/13 10:36:15;;;;;;;1.30;1.30;;;24.10;80.50;;;;;;5070707;28;20477;-71
2021/06/13 10:38:43;;;;;;;3.67;1.50;;;24.20;79.60;;;;;;5069465;28;20921;-73
2021/06/13 10:41:10;;;;;;;2.20;1.53;;;24.30;79.20;;;;;;5074789;28;20463;-72
2021/06/13 10:43:42;;;;;;;2.17;1.20;;;24.30;78.40;;;;;;5072061;28;20456;-73
2021/06/13 10:46:13;;;;;;;2.07;1.67;;;24.30;79.90;;;;;;5074579;28;20457;-71
2021/06/13 10:48:43;;;;;;;1.40;1.40;;;24.50;78.80;;;;;;5072002;28;20522;-71
2021/06/13 10:51:45;;;;;;;1.40;1.40;;;24.60;78.60;;;;;;5074371;28;20465;-72
2021/06/13 10:54:31;;;;;;;1.67;1.30;;;24.80;76.30;;;;;;5051658;28;20499;-70
2021/06/13 10:57:40;;;;;;;1.40;1.40;;;25.00;77.40;;;;;;5070026;28;20461;-70
2021/06/13 11:00:30;;;;;;;1.30;1.20;;;25.10;75.30;;;;;;5074378;28;20507;-72
2021/06/13 11:03:00;;;;;;;1.53;1.47;;;25.30;75.20;;;;;;5071915;28;20522;-72
2021/06/13 11:05:41;;;;;;;1.40;1.20;;;25.20;72.30;;;;;;5074383;28;20523;-75
2021/06/13 11:08:11;;;;;;;1.60;1.40;;;25.40;72.60;;;;;;5071715;28;21020;-72
2021/06/13 11:10:38;;;;;;;1.40;1.20;;;25.50;72.10;;;;;;5074033;28;20472;-73
2021/06/13 11:13:11;;;;;;;1.30;1.23;;;25.40;69.20;;;;;;5071460;28;20461;-73
2021/06/13 11:16:03;;;;;;;1.80;1.60;;;25.40;69.30;;;;;;5073892;28;21072;-72
2021/06/13 11:18:32;;;;;;;1.80;1.50;;;25.50;69.70;;;;;;5070384;28;20457;-73
2021/06/13 11:21:06;;;;;;;1.60;1.30;;;25.70;70.30;;;;;;5073926;28;20448;-72
2021/06/13 11:23:55;;;;;;;1.40;1.20;;;25.90;68.10;;;;;;5071334;28;20459;-72
2021/06/13 11:26:40;;;;;;;1.47;1.30;;;25.90;66.50;;;;;;5073954;28;20532;-73
2021/06/13 11:29:15;;;;;;;1.43;1.20;;;26.00;65.40;;;;;;5071547;28;20452;-74
2021/06/13 11:31:53;;;;;;;1.40;1.20;;;26.20;71.10;;;;;;5073628;28;20517;-73
2021/06/13 11:34:21;;;;;;;1.73;1.57;;;26.40;67.60;;;;;;5073478;28;20448;-73
2021/06/13 11:36:50;;;;;;;1.40;1.33;;;26.50;67.30;;;;;;5071476;28;20456;-74
2021/06/13 11:39:23;;;;;;;1.50;1.30;;;26.70;65.70;;;;;;5073543;28;20464;-73
2021/06/13 11:41:51;;;;;;;1.40;1.23;;;26.70;64.20;;;;;;5069439;28;20602;-74
2021/06/13 11:44:49;;;;;;;1.30;1.20;;;26.40;64.00;;;;;;5074055;28;20452;-72
2021/06/13 11:47:37;;;;;;;1.70;1.40;;;26.50;66.20;;;;;;5071477;28;20494;-72
2021/06/13 11:50:14;;;;;;;2.40;1.50;;;26.50;66.30;;;;;;5073447;28;20555;-74
2021/06/13 11:53:05;;;;;;;1.30;1.20;;;26.40;66.10;;;;;;5071170;28;20448;-73
2021/06/13 11:55:56;;;;;;;1.77;1.53;;;25.80;66.80;;;;;;5073583;28;20480;-72
2021/06/13 11:58:24;;;;;;;1.80;1.53;;;25.90;68.30;;;;;;5070896;28;20453;-74
2021/06/13 12:00:56;;;;;;;1.30;1.20;;;26.20;66.00;;;;;;5073661;28;20539;-73
2021/06/13 12:03:24;;;;;;;1.40;1.30;;;26.20;66.80;;;;;;5068987;28;20472;-72
2021/06/13 12:08:43;;;;;;;1.40;1.30;;;26.60;65.90;;;;;;5070789;28;20445;-72
2021/06/13 12:11:37;;;;;;;1.30;1.30;;;26.70;62.30;;;;;;5073928;28;20453;-72
2021/06/13 12:14:35;;;;;;;1.27;1.20;;;26.90;64.40;;;;;;5069422;28;20857;-73
2021/06/13 12:17:05;;;;;;;1.50;1.30;;;27.30;63.00;;;;;;5028546;28;20459;-72
2021/06/13 12:19:38;;;;;;;1.30;1.20;;;27.40;63.10;;;;;;5064794;28;20496;-74
2021/06/13 12:22:32;;;;;;;1.50;1.30;;;27.30;58.70;;;;;;5068515;28;20461;-74
2021/06/13 12:27:48;;;;;;;1.53;1.47;;;26.90;61.70;;;;;;5049049;28;20465;-73
2021/06/13 12:30:18;;;;;;;1.50;1.50;;;27.30;62.80;;;;;;5073545;28;20469;-73
2021/06/13 12:32:55;;;;;;;1.27;1.20;;;27.70;62.40;;;;;;5070607;28;20489;-72
2021/06/13 12:35:27;;;;;;;1.70;1.43;;;28.00;63.30;;;;;;5073199;28;20551;-73
2021/06/13 12:38:02;;;;;;;1.53;1.43;;;28.10;62.90;;;;;;5069373;28;20530;-74
2021/06/13 12:40:31;;;;;;;1.93;1.47;;;28.10;62.90;;;;;;5071873;28;20514;-73
2021/06/13 12:42:59;;;;;;;2.80;1.60;;;28.20;63.20;;;;;;5070106;28;20526;-73
2021/06/13 12:45:26;;;;;;;1.30;1.23;;;28.30;62.80;;;;;;5072685;28;20457;-72
2021/06/13 12:47:59;;;;;;;1.33;1.20;;;28.30;61.30;;;;;;5068149;28;20485;-75
2021/06/13 12:50:28;;;;;;;1.40;1.30;;;28.30;60.50;;;;;;5072506;28;20499;-73
2021/06/13 12:52:59;;;;;;;1.50;1.40;;;28.50;60.00;;;;;;5069541;28;20548;-75
2021/06/13 12:55:31;;;;;;;1.33;1.27;;;28.60;61.50;;;;;;5071889;28;20538;-76
2021/06/13 12:57:59;;;;;;;1.73;1.53;;;28.50;61.00;;;;;;5069691;28;20540;-75
2021/06/13 13:00:27;;;;;;;1.50;1.40;;;28.50;64.70;;;;;;5071974;28;20943;-74
2021/06/13 13:03:11;;;;;;;1.40;1.40;;;28.60;65.60;;;;;;5068210;28;20457;-74
2021/06/13 13:05:39;;;;;;;1.90;1.50;;;28.80;66.30;;;;;;5071709;28;20445;-74
2021/06/13 13:08:16;;;;;;;1.93;1.30;;;28.90;63.00;;;;;;5069694;28;20453;-76
2021/06/13 13:10:56;;;;;;;2.10;1.70;;;29.00;64.20;;;;;;5071776;28;20453;-74